Terminal Aerodrome Forecast
Issued by NWS

Home | Current Version | Previous Version | Text Only | Print | Product List | Glossary On
Versions: 1 2 3 4 5 6 7 8 9 10 11 12 13 14 15 16 17 18 19 20 21 22 23 24 25 26
000
FTPA31 PHFO 310500
TAFITO
TAF
PHTO 310538Z 3106/0106 14004KT P6SM SCT025 BKN050
      TEMPO 3106/3108 BKN025
     FM310800 24006KT P6SM SCT025 BKN050
     FM312000 11010KT P6SM SCT025 BKN050=

USA.gov is the U.S. government's official web portal to all federal, state and local government web resources and services.